Time,TemperatureF,DewpointF,PressureIn,WindDirection,WindDirectionDegrees,WindSpeedMPH,WindSpeedGustMPH,Humidity,HourlyPrecipIn,Conditions,Clouds,dailyrainin,SoftwareType,DateUTC
2013-02-04 00:00:00,26.8,0.2,29.26,NW,310,4.0,4.0,31,0.00,,,0.00,VWS V14.01,2013-02-04 05:00:00,
2013-02-04 00:01:00,26.8,0.2,29.26,North,0,8.1,12.8,31,0.00,,,0.00,VWS V14.01,2013-02-04 05:01:00,
2013-02-04 00:02:00,26.6,0.7,29.26,NNE,13,2.7,3.6,32,0.00,,,0.00,VWS V14.01,2013-02-04 05:02:00,
2013-02-04 00:03:00,26.6,0.7,29.26,North,357,3.6,3.6,32,0.00,,,0.00,VWS V14.01,2013-02-04 05:03:00,
2013-02-04 00:08:00,26.6,0.7,29.26,NNW,338,2.7,4.9,32,0.00,,,0.00,VWS V14.01,2013-02-04 05:08:00,
2013-02-04 00:13:00,26.4,0.6,29.26,North,0,2.2,3.6,32,0.00,,,0.00,VWS V14.01,2013-02-04 05:13:00,
2013-02-04 00:18:00,26.2,0.4,29.26,NNE,17,2.2,3.6,32,0.00,,,0.00,VWS V14.01,2013-02-04 05:18:00,
2013-02-04 00:23:00,26.1,0.2,29.26,NNW,342,8.3,8.3,32,0.00,,,0.00,VWS V14.01,2013-02-04 05:23:00,
2013-02-04 00:28:00,26.1,0.2,29.26,NNE,18,0.0,0.0,32,0.00,,,0.00,VWS V14.01,2013-02-04 05:28:00,
2013-02-04 00:33:00,26.1,0.2,29.26,NNW,336,5.4,8.1,32,0.00,,,0.00,VWS V14.01,2013-02-04 05:33:00,
2013-02-04 00:38:00,25.9,0.1,29.26,North,0,4.0,4.0,32,0.00,,,0.00,VWS V14.01,2013-02-04 05:38:00,
2013-02-04 00:43:00,25.9,0.1,29.26,West,271,8.3,8.3,32,0.00,,,0.00,VWS V14.01,2013-02-04 05:43:00,
2013-02-04 00:48:00,25.7,-0.1,29.26,NW,304,6.3,6.3,32,0.00,,,0.00,VWS V14.01,2013-02-04 05:48:00,
2013-02-04 00:53:00,25.7,-0.1,29.26,East,84,5.4,5.4,32,0.00,,,0.00,VWS V14.01,2013-02-04 05:53:00,
2013-02-04 00:58:00,25.5,-0.2,29.26,North,6,2.2,2.2,32,0.00,,,0.00,VWS V14.01,2013-02-04 05:58:00,
2013-02-04 01:03:00,25.5,-0.2,29.26,NW,321,11.0,11.0,32,0.00,,,0.00,VWS V14.01,2013-02-04 06:03:00,
2013-02-04 01:08:00,25.5,-0.2,29.26,NNE,29,2.7,2.7,32,0.00,,,0.00,VWS V14.01,2013-02-04 06:08:00,
2013-02-04 01:13:00,25.3,-0.4,29.26,NE,42,0.0,2.2,32,0.00,,,0.00,VWS V14.01,2013-02-04 06:13:00,
2013-02-04 01:18:00,25.3,-0.4,29.26,NNE,32,2.2,2.7,32,0.00,,,0.00,VWS V14.01,2013-02-04 06:18:00,
2013-02-04 01:23:00,25.3,-0.4,29.26,North,2,2.7,2.7,32,0.00,,,0.00,VWS V14.01,2013-02-04 06:23:00,
2013-02-04 01:28:00,25.3,-0.4,29.26,North,357,0.0,0.0,32,0.00,,,0.00,VWS V14.01,2013-02-04 06:28:00,
2013-02-04 01:33:00,25.3,-0.4,29.26,NNE,12,2.7,2.7,32,0.00,,,0.00,VWS V14.01,2013-02-04 06:33:00,
2013-02-04 01:38:00,25.3,-0.4,29.26,NE,50,0.0,0.0,32,0.00,,,0.00,VWS V14.01,2013-02-04 06:38:00,
2013-02-04 01:43:00,25.3,-0.4,29.26,NNE,14,2.2,5.8,32,0.00,,,0.00,VWS V14.01,2013-02-04 06:43:00,
2013-02-04 01:48:00,25.2,-0.5,29.26,NE,50,0.0,0.0,32,0.00,,,0.00,VWS V14.01,2013-02-04 06:48:00,
2013-02-04 01:53:00,25.2,-0.5,29.26,North,1,4.0,4.0,32,0.00,,,0.00,VWS V14.01,2013-02-04 06:53:00,
2013-02-04 01:58:00,25.2,-0.5,29.26,NNE,20,0.0,0.0,32,0.00,,,0.00,VWS V14.01,2013-02-04 06:58:00,
2013-02-04 02:03:00,25.0,-0.7,29.29,NW,319,3.1,3.1,32,0.00,,,0.00,VWS V14.01,2013-02-04 07:03:00,
2013-02-04 02:08:00,25.2,-0.5,29.29,NNW,327,2.2,4.0,32,0.00,,,0.00,VWS V14.01,2013-02-04 07:08:00,
2013-02-04 02:13:00,25.0,-0.7,29.29,NW,317,2.7,2.7,32,0.00,,,0.00,VWS V14.01,2013-02-04 07:13:00,
2013-02-04 02:18:00,25.2,-0.5,29.26,NW,321,2.7,2.7,32,0.00,,,0.00,VWS V14.01,2013-02-04 07:18:00,
2013-02-04 02:23:00,25.2,-0.5,29.26,North,0,0.0,2.7,32,0.00,,,0.00,VWS V14.01,2013-02-04 07:23:00,
2013-02-04 02:28:00,25.2,-0.5,29.26,ENE,58,2.7,2.7,32,0.00,,,0.00,VWS V14.01,2013-02-04 07:28:00,
2013-02-04 02:33:00,25.3,-0.4,29.29,NNE,26,2.2,5.8,32,0.00,,,0.00,VWS V14.01,2013-02-04 07:33:00,
2013-02-04 02:38:00,25.3,-0.4,29.29,NW,317,0.0,5.4,32,0.00,,,0.00,VWS V14.01,2013-02-04 07:38:00,
2013-02-04 02:43:00,25.3,-0.4,29.29,ENE,78,3.1,3.6,32,0.00,,,0.00,VWS V14.01,2013-02-04 07:43:00,
2013-02-04 02:48:00,25.3,-0.4,29.29,NE,36,0.0,3.1,32,0.00,,,0.00,VWS V14.01,2013-02-04 07:48:00,
2013-02-04 02:53:00,25.3,-0.4,29.29,North,349,0.0,4.9,32,0.00,,,0.00,VWS V14.01,2013-02-04 07:53:00,
2013-02-04 02:58:00,25.3,-0.4,29.29,SE,139,2.2,8.1,32,0.00,,,0.00,VWS V14.01,2013-02-04 07:58:00,
2013-02-04 03:03:00,25.3,-0.4,29.29,ENE,57,3.1,3.1,32,0.00,,,0.00,VWS V14.01,2013-02-04 08:03:00,
2013-02-04 03:08:00,25.3,-0.4,29.29,ESE,108,5.4,8.1,32,0.00,,,0.00,VWS V14.01,2013-02-04 08:08:00,
2013-02-04 03:13:00,25.3,-0.4,29.29,NNE,33,0.0,3.6,32,0.00,,,0.00,VWS V14.01,2013-02-04 08:13:00,
2013-02-04 03:18:00,25.3,-0.4,29.29,NE,55,3.6,3.6,32,0.00,,,0.00,VWS V14.01,2013-02-04 08:18:00,
2013-02-04 03:23:00,25.3,-0.4,29.29,NNE,14,3.1,5.8,32,0.00,,,0.00,VWS V14.01,2013-02-04 08:23:00,
2013-02-04 03:28:00,25.3,-0.4,29.29,NNW,332,8.3,8.3,32,0.00,,,0.00,VWS V14.01,2013-02-04 08:28:00,
2013-02-04 03:33:00,25.3,-0.4,29.29,NW,322,3.6,5.4,32,0.00,,,0.00,VWS V14.01,2013-02-04 08:33:00,
2013-02-04 03:38:00,25.3,-0.4,29.29,East,97,5.8,8.7,32,0.00,,,0.00,VWS V14.01,2013-02-04 08:38:00,
2013-02-04 03:43:00,25.3,-0.4,29.29,NE,41,3.1,3.1,32,0.00,,,0.00,VWS V14.01,2013-02-04 08:43:00,
2013-02-04 03:49:00,25.3,-0.4,29.29,ENE,61,2.7,3.1,32,0.00,,,0.00,VWS V14.01,2013-02-04 08:49:00,
2013-02-04 03:54:00,25.2,-0.5,29.29,NNW,346,5.8,10.5,32,0.00,,,0.00,VWS V14.01,2013-02-04 08:54:00,
2013-02-04 03:59:00,25.0,-0.7,29.29,North,11,0.0,4.9,32,0.00,,,0.00,VWS V14.01,2013-02-04 08:59:00,
2013-02-04 04:04:00,25.0,-0.7,29.29,ENE,59,2.7,4.9,32,0.00,,,0.00,VWS V14.01,2013-02-04 09:04:00,
2013-02-04 04:09:00,25.0,-0.7,29.29,NNE,23,0.0,5.4,32,0.00,,,0.00,VWS V14.01,2013-02-04 09:09:00,
2013-02-04 04:14:00,24.8,-0.9,29.29,NNW,336,4.0,4.0,32,0.00,,,0.00,VWS V14.01,2013-02-04 09:14:00,
2013-02-04 04:19:00,24.8,-0.9,29.29,NE,35,3.6,3.6,32,0.00,,,0.00,VWS V14.01,2013-02-04 09:19:00,
2013-02-04 04:24:00,24.6,-1.0,29.29,North,353,0.0,0.0,32,0.00,,,0.00,VWS V14.01,2013-02-04 09:24:00,
2013-02-04 04:29:00,24.6,-1.0,29.29,NNE,29,2.2,2.7,32,0.00,,,0.00,VWS V14.01,2013-02-04 09:29:00,
2013-02-04 04:34:00,24.6,-1.0,29.29,NNE,32,3.1,4.9,32,0.00,,,0.00,VWS V14.01,2013-02-04 09:34:00,
2013-02-04 04:39:00,24.4,-1.2,29.29,North,357,0.0,0.0,32,0.00,,,0.00,VWS V14.01,2013-02-04 09:39:00,
2013-02-04 04:44:00,24.4,-1.2,29.29,ENE,59,3.1,4.0,32,0.00,,,0.00,VWS V14.01,2013-02-04 09:44:00,
2013-02-04 04:49:00,24.4,-1.2,29.29,ENE,61,2.7,2.7,32,0.00,,,0.00,VWS V14.01,2013-02-04 09:49:00,
2013-02-04 04:54:00,24.4,-1.2,29.29,North,8,0.0,2.7,32,0.00,,,0.00,VWS V14.01,2013-02-04 09:54:00,
2013-02-04 04:59:00,24.4,-1.2,29.29,North,353,0.0,0.0,32,0.00,,,0.00,VWS V14.01,2013-02-04 09:59:00,
2013-02-04 05:04:00,24.4,-1.2,29.29,NW,304,2.7,2.7,32,0.00,,,0.00,VWS V14.01,2013-02-04 10:04:00,
2013-02-04 05:09:00,24.4,-1.2,29.29,NE,52,2.7,2.7,32,0.00,,,0.00,VWS V14.01,2013-02-04 10:09:00,
2013-02-04 05:14:00,24.4,-1.2,29.29,NNE,12,2.2,2.2,32,0.00,,,0.00,VWS V14.01,2013-02-04 10:14:00,
2013-02-04 05:19:00,24.4,-1.2,29.29,NNW,329,2.2,2.2,32,0.00,,,0.00,VWS V14.01,2013-02-04 10:19:00,
2013-02-04 05:24:00,24.3,-1.3,29.29,NNW,338,0.0,0.0,32,0.00,,,0.00,VWS V14.01,2013-02-04 10:24:00,
2013-02-04 05:29:00,24.3,-1.3,29.29,NNW,342,2.2,2.7,32,0.00,,,0.00,VWS V14.01,2013-02-04 10:29:00,
2013-02-04 05:34:00,24.3,-1.3,29.29,NW,308,4.0,4.0,32,0.00,,,0.00,VWS V14.01,2013-02-04 10:34:00,
2013-02-04 05:39:00,24.1,-1.5,29.29,NW,323,6.3,6.3,32,0.00,,,0.00,VWS V14.01,2013-02-04 10:39:00,
2013-02-04 05:44:00,24.1,-1.5,29.29,North,357,2.7,2.7,32,0.00,,,0.00,VWS V14.01,2013-02-04 10:44:00,
2013-02-04 05:49:00,24.1,-1.5,29.29,NW,308,3.1,11.0,32,0.00,,,0.00,VWS V14.01,2013-02-04 10:49:00,
2013-02-04 05:54:00,24.3,-1.3,29.29,NNW,343,0.0,2.7,32,0.00,,,0.00,VWS V14.01,2013-02-04 10:54:00,
2013-02-04 05:59:00,24.3,-1.3,29.29,NW,312,3.6,4.0,32,0.00,,,0.00,VWS V14.01,2013-02-04 10:59:00,
2013-02-04 06:04:00,24.4,-1.2,29.32,NE,55,5.4,5.4,32,0.00,,,0.00,VWS V14.01,2013-02-04 11:04:00,
2013-02-04 06:09:00,24.4,-1.2,29.32,NW,321,3.6,4.5,32,0.00,,,0.00,VWS V14.01,2013-02-04 11:09:00,
2013-02-04 06:14:00,24.4,-1.2,29.32,NW,304,6.3,6.3,32,0.00,,,0.00,VWS V14.01,2013-02-04 11:14:00,
2013-02-04 06:19:00,24.4,-1.2,29.32,NNW,327,2.2,2.7,32,0.00,,,0.00,VWS V14.01,2013-02-04 11:19:00,
2013-02-04 06:24:00,24.4,-1.2,29.32,North,8,5.4,8.1,32,0.00,,,0.00,VWS V14.01,2013-02-04 11:24:00,
2013-02-04 06:29:00,24.4,-1.2,29.32,North,0,0.0,0.0,32,0.00,,,0.00,VWS V14.01,2013-02-04 11:29:00,
2013-02-04 06:34:00,24.4,-1.2,29.32,NNW,336,2.2,4.0,32,0.00,,,0.00,VWS V14.01,2013-02-04 11:34:00,
2013-02-04 06:39:00,24.4,-1.2,29.32,NW,320,3.6,4.9,32,0.00,,,0.00,VWS V14.01,2013-02-04 11:39:00,
2013-02-04 06:44:00,24.4,-1.2,29.32,North,6,2.2,3.1,32,0.00,,,0.00,VWS V14.01,2013-02-04 11:44:00,
2013-02-04 06:49:00,24.4,-1.2,29.32,NE,48,0.0,0.0,32,0.00,,,0.00,VWS V14.01,2013-02-04 11:49:00,
2013-02-04 06:54:00,24.4,-1.2,29.32,NNW,339,2.7,4.0,32,0.00,,,0.00,VWS V14.01,2013-02-04 11:54:00,
2013-02-04 06:59:00,24.3,-1.3,29.32,NNW,338,3.6,4.0,32,0.00,,,0.00,VWS V14.01,2013-02-04 11:59:00,
2013-02-04 07:04:00,24.1,-1.5,29.32,NNW,333,0.0,2.7,32,0.00,,,0.00,VWS V14.01,2013-02-04 12:04:00,
2013-02-04 07:09:00,24.1,-1.5,29.32,NNW,336,0.0,4.0,32,0.00,,,0.00,VWS V14.01,2013-02-04 12:09:00,
2013-02-04 07:14:00,24.1,-1.5,29.32,NNW,336,0.0,0.0,32,0.00,,,0.00,VWS V14.01,2013-02-04 12:14:00,
2013-02-04 07:19:00,23.9,-1.7,29.32,NNW,334,2.2,3.6,32,0.00,,,0.00,VWS V14.01,2013-02-04 12:19:00,
2013-02-04 07:24:00,24.1,-1.5,29.32,NNW,334,0.0,0.0,32,0.00,,,0.00,VWS V14.01,2013-02-04 12:24:00,
2013-02-04 07:29:00,24.1,-1.5,29.32,NNW,334,0.0,0.0,32,0.00,,,0.00,VWS V14.01,2013-02-04 12:29:00,
2013-02-04 07:34:00,24.1,-1.5,29.35,NNW,334,0.0,0.0,32,0.00,,,0.00,VWS V14.01,2013-02-04 12:34:00,
2013-02-04 07:39:00,24.3,-1.3,29.35,NNW,334,2.2,2.7,32,0.00,,,0.00,VWS V14.01,2013-02-04 12:39:00,
2013-02-04 07:44:00,24.4,-1.2,29.35,NNW,334,0.0,2.7,32,0.00,,,0.00,VWS V14.01,2013-02-04 12:44:00,
2013-02-04 07:49:00,24.6,-1.0,29.35,NNW,334,3.1,3.1,32,0.00,,,0.00,VWS V14.01,2013-02-04 12:49:00,
2013-02-04 07:54:00,24.8,-0.9,29.35,NNW,334,0.0,0.0,32,0.00,,,0.00,VWS V14.01,2013-02-04 12:54:00,
2013-02-04 07:59:00,25.2,-0.5,29.35,NNW,331,0.0,0.0,32,0.00,,,0.00,VWS V14.01,2013-02-04 12:59:00,
2013-02-04 08:04:00,25.3,-0.4,29.35,NNW,333,0.0,0.0,32,0.00,,,0.00,VWS V14.01,2013-02-04 13:04:00,
2013-02-04 08:09:00,25.5,-0.2,29.35,NNW,330,3.1,3.1,32,0.00,,,0.00,VWS V14.01,2013-02-04 13:09:00,
2013-02-04 08:14:00,25.7,-0.1,29.35,NNW,329,0.0,0.0,32,0.00,,,0.00,VWS V14.01,2013-02-04 13:14:00,
2013-02-04 08:19:00,25.9,0.1,29.35,NNW,330,4.0,4.0,32,0.00,,,0.00,VWS V14.01,2013-02-04 13:19:00,
2013-02-04 08:24:00,25.9,0.1,29.35,North,0,2.7,2.7,32,0.00,,,0.00,VWS V14.01,2013-02-04 13:24:00,
2013-02-04 08:29:00,26.1,0.2,29.35,NNW,329,3.1,4.9,32,0.00,,,0.00,VWS V14.01,2013-02-04 13:29:00,
2013-02-04 08:34:00,26.1,0.2,29.35,NNW,335,3.1,4.0,32,0.00,,,0.00,VWS V14.01,2013-02-04 13:34:00,
2013-02-04 08:39:00,26.2,0.4,29.35,NNW,341,2.7,3.6,32,0.00,,,0.00,VWS V14.01,2013-02-04 13:39:00,
2013-02-04 08:44:00,26.4,0.6,29.35,North,353,0.0,3.6,32,0.00,,,0.00,VWS V14.01,2013-02-04 13:44:00,
2013-02-04 08:49:00,26.4,0.6,29.35,North,357,0.0,0.0,32,0.00,,,0.00,VWS V14.01,2013-02-04 13:49:00,
2013-02-04 08:54:00,26.6,0.7,29.35,NNW,335,4.0,4.0,32,0.00,,,0.00,VWS V14.01,2013-02-04 13:54:00,
2013-02-04 08:59:00,26.8,0.2,29.35,North,0,0.0,3.1,31,0.00,,,0.00,VWS V14.01,2013-02-04 13:59:00,
2013-02-04 09:04:00,27.0,0.4,29.35,North,353,3.1,6.7,31,0.00,,,0.00,VWS V14.01,2013-02-04 14:04:00,
2013-02-04 09:09:00,27.1,0.5,29.35,NNW,333,4.0,5.8,31,0.00,,,0.00,VWS V14.01,2013-02-04 14:09:00,
2013-02-04 09:14:00,27.5,0.8,29.35,North,350,4.9,4.9,31,0.00,,,0.00,VWS V14.01,2013-02-04 14:14:00,
2013-02-04 09:19:00,27.9,1.2,29.35,NW,321,3.6,3.6,31,0.00,,,0.00,VWS V14.01,2013-02-04 14:19:00,
2013-02-04 09:24:00,28.0,1.3,29.35,WNW,293,0.0,0.0,31,0.00,,,0.00,VWS V14.01,2013-02-04 14:24:00,
2013-02-04 09:30:00,28.6,1.8,29.35,SE,146,2.7,4.0,31,0.00,,,0.00,VWS V14.01,2013-02-04 14:30:00,
2013-02-04 09:35:00,29.3,2.4,29.35,WNW,290,2.2,2.7,31,0.00,,,0.00,VWS V14.01,2013-02-04 14:35:00,
2013-02-04 09:40:00,29.7,2.7,29.35,NE,45,0.0,3.6,31,0.00,,,0.00,VWS V14.01,2013-02-04 14:40:00,
2013-02-04 09:45:00,29.7,2.7,29.35,NNW,332,3.6,3.6,31,0.00,,,0.00,VWS V14.01,2013-02-04 14:45:00,
2013-02-04 09:50:00,30.0,3.1,29.35,NNW,346,0.0,0.0,31,0.00,,,0.00,VWS V14.01,2013-02-04 14:50:00,
2013-02-04 09:55:00,30.7,3.0,29.35,SE,136,3.6,3.6,30,0.00,,,0.00,VWS V14.01,2013-02-04 14:55:00,
2013-02-04 10:00:00,31.3,3.5,29.35,ESE,113,2.2,3.1,30,0.00,,,0.00,VWS V14.01,2013-02-04 15:00:00,
2013-02-04 10:05:00,32.0,4.1,29.35,East,94,4.0,4.0,30,0.00,,,0.00,VWS V14.01,2013-02-04 15:05:00,
2013-02-04 10:10:00,32.4,4.4,29.35,ESE,112,2.7,3.1,30,0.00,,,0.00,VWS V14.01,2013-02-04 15:10:00,
2013-02-04 10:15:00,32.4,4.4,29.35,NNW,334,0.0,0.0,30,0.00,,,0.00,VWS V14.01,2013-02-04 15:15:00,
2013-02-04 10:20:00,32.5,4.6,29.35,East,92,2.2,2.7,30,0.00,,,0.00,VWS V14.01,2013-02-04 15:20:00,
2013-02-04 10:25:00,32.9,4.9,29.35,WNW,298,0.0,0.0,30,0.00,,,0.00,VWS V14.01,2013-02-04 15:25:00,
2013-02-04 10:30:00,33.4,5.3,29.35,East,95,2.2,4.0,30,0.00,,,0.00,VWS V14.01,2013-02-04 15:30:00,
2013-02-04 10:35:00,33.6,5.5,29.35,NW,312,4.9,4.9,30,0.00,,,0.00,VWS V14.01,2013-02-04 15:35:00,
2013-02-04 10:40:00,33.6,5.5,29.35,SE,138,0.0,0.0,30,0.00,,,0.00,VWS V14.01,2013-02-04 15:40:00,
2013-02-04 10:45:00,33.8,5.7,29.35,NNW,330,4.9,4.9,30,0.00,,,0.00,VWS V14.01,2013-02-04 15:45:00,
2013-02-04 10:50:00,33.6,5.5,29.32,NW,304,0.0,0.0,30,0.00,,,0.00,VWS V14.01,2013-02-04 15:50:00,
2013-02-04 10:55:00,33.3,5.2,29.32,North,0,2.2,2.2,30,0.00,,,0.00,VWS V14.01,2013-02-04 15:55:00,
2013-02-04 11:00:00,33.6,5.5,29.32,SE,131,3.1,3.1,30,0.00,,,0.00,VWS V14.01,2013-02-04 16:00:00,
2013-02-04 11:05:00,33.8,5.7,29.32,NNW,340,2.2,2.7,30,0.00,,,0.00,VWS V14.01,2013-02-04 16:05:00,
2013-02-04 11:10:00,33.8,5.7,29.32,NW,312,0.0,0.0,30,0.00,,,0.00,VWS V14.01,2013-02-04 16:10:00,
2013-02-04 11:15:00,33.6,5.5,29.32,East,81,3.6,3.6,30,0.00,,,0.00,VWS V14.01,2013-02-04 16:15:00,
2013-02-04 11:20:00,34.0,5.8,29.32,ESE,102,3.6,3.6,30,0.00,,,0.00,VWS V14.01,2013-02-04 16:20:00,
2013-02-04 11:25:00,34.3,6.1,29.32,SSE,168,2.2,4.0,30,0.00,,,0.00,VWS V14.01,2013-02-04 16:25:00,
2013-02-04 11:30:00,34.3,3.8,29.32,SE,124,4.0,4.0,27,0.00,,,0.00,VWS V14.01,2013-02-04 16:30:00,
2013-02-04 11:35:00,34.3,3.8,29.32,ESE,119,4.0,4.0,27,0.00,,,0.00,VWS V14.01,2013-02-04 16:35:00,
2013-02-04 11:40:00,34.5,4.0,29.32,North,0,2.2,4.0,27,0.00,,,0.00,VWS V14.01,2013-02-04 16:40:00,
2013-02-04 11:45:00,34.5,4.0,29.32,NNW,344,0.0,0.0,27,0.00,,,0.00,VWS V14.01,2013-02-04 16:45:00,
2013-02-04 11:50:00,34.5,4.0,29.32,East,100,2.7,3.6,27,0.00,,,0.00,VWS V14.01,2013-02-04 16:50:00,
2013-02-04 11:55:00,34.9,4.3,29.32,NNW,343,3.1,5.8,27,0.00,,,0.00,VWS V14.01,2013-02-04 16:55:00,
2013-02-04 12:22:00,35.4,4.8,29.29,ESE,119,3.6,5.4,27,0.00,,,0.00,VWS V14.01,2013-02-04 17:22:00,
2013-02-04 12:27:00,35.6,4.9,29.29,ESE,123,2.7,2.7,27,0.00,,,0.00,VWS V14.01,2013-02-04 17:27:00,
2013-02-04 12:32:00,35.6,4.9,29.29,East,100,0.0,4.0,27,0.00,,,0.00,VWS V14.01,2013-02-04 17:32:00,
2013-02-04 12:37:00,36.0,5.2,29.29,SE,129,2.7,3.6,27,0.00,,,0.00,VWS V14.01,2013-02-04 17:37:00,
2013-02-04 12:42:00,36.1,5.4,29.29,SW,226,0.0,4.0,27,0.00,,,0.00,VWS V14.01,2013-02-04 17:42:00,
2013-02-04 12:47:00,36.3,5.6,29.26,East,99,3.1,5.4,27,0.00,,,0.00,VWS V14.01,2013-02-04 17:47:00,
2013-02-04 12:52:00,36.5,5.7,29.26,SW,221,0.0,2.7,27,0.00,,,0.00,VWS V14.01,2013-02-04 17:52:00,
2013-02-04 12:57:00,36.7,5.9,29.26,West,274,0.0,0.0,27,0.00,,,0.00,VWS V14.01,2013-02-04 17:57:00,
2013-02-04 13:02:00,36.7,5.9,29.26,WNW,283,4.9,4.9,27,0.00,,,0.00,VWS V14.01,2013-02-04 18:02:00,
2013-02-04 13:07:00,36.9,6.0,29.26,WSW,253,2.7,2.7,27,0.00,,,0.00,VWS V14.01,2013-02-04 18:07:00,
2013-02-04 13:12:00,37.0,6.2,29.26,ENE,78,0.0,3.1,27,0.00,,,0.00,VWS V14.01,2013-02-04 18:12:00,
2013-02-04 13:17:00,37.6,5.8,29.26,ESE,121,3.6,5.4,26,0.00,,,0.00,VWS V14.01,2013-02-04 18:17:00,
2013-02-04 13:22:00,37.6,5.8,29.26,ESE,118,4.5,4.5,26,0.00,,,0.00,VWS V14.01,2013-02-04 18:22:00,
2013-02-04 13:27:00,37.8,6.0,29.26,ESE,104,0.0,0.0,26,0.00,,,0.00,VWS V14.01,2013-02-04 18:27:00,
2013-02-04 13:32:00,37.9,6.1,29.23,East,97,2.7,4.0,26,0.00,,,0.00,VWS V14.01,2013-02-04 18:32:00,
2013-02-04 13:37:00,38.1,6.3,29.23,NNW,334,4.9,4.9,26,0.00,,,0.00,VWS V14.01,2013-02-04 18:37:00,
2013-02-04 13:42:00,38.3,6.4,29.23,ENE,69,0.0,0.0,26,0.00,,,0.00,VWS V14.01,2013-02-04 18:42:00,
2013-02-04 13:47:00,38.3,6.4,29.23,ESE,116,0.0,3.6,26,0.00,,,0.00,VWS V14.01,2013-02-04 18:47:00,
2013-02-04 13:52:00,38.3,6.4,29.23,ESE,110,2.7,3.1,26,0.00,,,0.00,VWS V14.01,2013-02-04 18:52:00,
2013-02-04 13:57:00,38.3,6.4,29.23,ESE,122,0.0,0.0,26,0.00,,,0.00,VWS V14.01,2013-02-04 18:57:00,
2013-02-04 14:02:00,38.5,6.6,29.23,East,99,0.0,0.0,26,0.00,,,0.00,VWS V14.01,2013-02-04 19:02:00,
2013-02-04 14:07:00,38.5,6.6,29.23,ESE,117,2.7,3.1,26,0.00,,,0.00,VWS V14.01,2013-02-04 19:07:00,
2013-02-04 14:12:00,38.5,6.6,29.23,SE,137,0.0,3.1,26,0.00,,,0.00,VWS V14.01,2013-02-04 19:12:00,
2013-02-04 14:17:00,38.5,6.6,29.23,ESE,110,2.2,2.7,26,0.00,,,0.00,VWS V14.01,2013-02-04 19:17:00,
2013-02-04 14:22:00,38.3,6.4,29.23,East,101,0.0,0.0,26,0.00,,,0.00,VWS V14.01,2013-02-04 19:22:00,
2013-02-04 14:27:00,38.5,6.6,29.23,East,96,0.0,0.0,26,0.00,,,0.00,VWS V14.01,2013-02-04 19:27:00,
2013-02-04 14:33:00,38.5,6.6,29.23,SSE,151,0.0,0.0,26,0.00,,,0.00,VWS V14.01,2013-02-04 19:33:00,
2013-02-04 14:38:00,38.8,6.9,29.23,East,100,0.0,2.7,26,0.00,,,0.00,VWS V14.01,2013-02-04 19:38:00,
2013-02-04 14:43:00,39.4,7.4,29.23,SSE,150,0.0,0.0,26,0.00,,,0.00,VWS V14.01,2013-02-04 19:43:00,
2013-02-04 14:48:00,39.7,7.7,29.21,North,353,3.1,3.1,26,0.00,,,0.00,VWS V14.01,2013-02-04 19:48:00,
2013-02-04 14:53:00,39.9,7.8,29.21,ESE,110,0.0,3.6,26,0.00,,,0.00,VWS V14.01,2013-02-04 19:53:00,
2013-02-04 14:58:00,39.9,7.8,29.21,ESE,107,3.1,4.9,26,0.00,,,0.00,VWS V14.01,2013-02-04 19:58:00,
2013-02-04 15:03:00,40.1,8.0,29.21,NW,314,2.7,2.7,26,0.00,,,0.00,VWS V14.01,2013-02-04 20:03:00,
2013-02-04 15:08:00,40.3,8.1,29.21,ESE,106,2.2,3.1,26,0.00,,,0.00,VWS V14.01,2013-02-04 20:08:00,
2013-02-04 15:13:00,40.5,8.3,29.21,NW,304,0.0,0.0,26,0.00,,,0.00,VWS V14.01,2013-02-04 20:13:00,
2013-02-04 15:18:00,40.5,8.3,29.21,SE,139,0.0,2.7,26,0.00,,,0.00,VWS V14.01,2013-02-04 20:18:00,
2013-02-04 15:23:00,40.5,8.3,29.21,East,88,5.8,5.8,26,0.00,,,0.00,VWS V14.01,2013-02-04 20:23:00,
2013-02-04 15:28:00,40.6,5.8,29.21,ESE,115,3.1,5.4,23,0.00,,,0.00,VWS V14.01,2013-02-04 20:28:00,
2013-02-04 15:33:00,40.6,5.8,29.21,NW,311,4.0,4.0,23,0.00,,,0.00,VWS V14.01,2013-02-04 20:33:00,
2013-02-04 15:38:00,40.5,5.6,29.21,ESE,116,2.7,3.6,23,0.00,,,0.00,VWS V14.01,2013-02-04 20:38:00,
2013-02-04 15:43:00,40.3,5.4,29.21,ESE,117,2.7,3.1,23,0.00,,,0.00,VWS V14.01,2013-02-04 20:43:00,
2013-02-04 15:48:00,39.9,5.1,29.21,East,101,3.1,3.1,23,0.00,,,0.00,VWS V14.01,2013-02-04 20:48:00,
2013-02-04 15:53:00,39.7,5.0,29.21,ESE,121,0.0,3.6,23,0.00,,,0.00,VWS V14.01,2013-02-04 20:53:00,
2013-02-04 15:58:00,39.7,5.0,29.21,NW,318,0.0,0.0,23,0.00,,,0.00,VWS V14.01,2013-02-04 20:58:00,
2013-02-04 16:03:00,39.6,4.8,29.21,ENE,72,0.0,0.0,23,0.00,,,0.00,VWS V14.01,2013-02-04 21:03:00,
2013-02-04 16:08:00,39.4,4.7,29.21,ESE,123,0.0,0.0,23,0.00,,,0.00,VWS V14.01,2013-02-04 21:08:00,
2013-02-04 16:13:00,39.2,4.5,29.21,East,86,0.0,0.0,23,0.00,,,0.00,VWS V14.01,2013-02-04 21:13:00,
2013-02-04 16:18:00,38.8,5.2,29.21,NNW,341,0.0,0.0,24,0.00,,,0.00,VWS V14.01,2013-02-04 21:18:00,
2013-02-04 16:23:00,38.8,5.2,29.21,ESE,113,2.2,2.2,24,0.00,,,0.00,VWS V14.01,2013-02-04 21:23:00,
2013-02-04 16:28:00,38.7,5.0,29.21,East,96,0.0,0.0,24,0.00,,,0.00,VWS V14.01,2013-02-04 21:28:00,
2013-02-04 16:33:00,38.5,4.8,29.21,North,349,0.0,0.0,24,0.00,,,0.00,VWS V14.01,2013-02-04 21:33:00,
2013-02-04 16:38:00,38.1,4.5,29.21,NNW,342,0.0,0.0,24,0.00,,,0.00,VWS V14.01,2013-02-04 21:38:00,
2013-02-04 16:43:00,37.9,4.4,29.21,NNW,342,0.0,0.0,24,0.00,,,0.00,VWS V14.01,2013-02-04 21:43:00,
2013-02-04 16:48:00,37.9,6.1,29.21,NNW,343,0.0,0.0,26,0.00,,,0.00,VWS V14.01,2013-02-04 21:48:00,
2013-02-04 16:53:00,37.8,6.0,29.21,NNW,343,0.0,0.0,26,0.00,,,0.00,VWS V14.01,2013-02-04 21:53:00,
2013-02-04 16:58:00,37.8,6.0,29.21,NNW,339,3.1,3.1,26,0.00,,,0.00,VWS V14.01,2013-02-04 21:58:00,
2013-02-04 17:03:00,37.6,5.8,29.21,ENE,75,3.1,3.1,26,0.00,,,0.00,VWS V14.01,2013-02-04 22:03:00,
2013-02-04 17:08:00,37.6,5.8,29.21,ESE,114,0.0,2.2,26,0.00,,,0.00,VWS V14.01,2013-02-04 22:08:00,
2013-02-04 17:13:00,37.4,5.7,29.21,ESE,119,2.7,2.7,26,0.00,,,0.00,VWS V14.01,2013-02-04 22:13:00,
2013-02-04 17:18:00,37.4,5.7,29.21,NE,38,2.7,3.1,26,0.00,,,0.00,VWS V14.01,2013-02-04 22:18:00,
2013-02-04 17:23:00,37.2,6.3,29.21,East,85,0.0,0.0,27,0.00,,,0.00,VWS V14.01,2013-02-04 22:23:00,
2013-02-04 17:28:00,37.0,6.2,29.21,East,85,0.0,0.0,27,0.00,,,0.00,VWS V14.01,2013-02-04 22:28:00,
2013-02-04 17:33:00,37.0,6.2,29.21,East,85,0.0,0.0,27,0.00,,,0.00,VWS V14.01,2013-02-04 22:33:00,
2013-02-04 17:38:00,36.9,6.0,29.21,East,85,0.0,0.0,27,0.00,,,0.00,VWS V14.01,2013-02-04 22:38:00,
2013-02-04 17:43:00,36.7,5.9,29.21,East,100,0.0,0.0,27,0.00,,,0.00,VWS V14.01,2013-02-04 22:43:00,
2013-02-04 17:48:00,36.7,5.9,29.21,NE,50,0.0,0.0,27,0.00,,,0.00,VWS V14.01,2013-02-04 22:48:00,
2013-02-04 17:53:00,36.5,5.7,29.21,ESE,119,0.0,0.0,27,0.00,,,0.00,VWS V14.01,2013-02-04 22:53:00,
2013-02-04 17:58:00,36.5,5.7,29.21,East,100,2.2,2.2,27,0.00,,,0.00,VWS V14.01,2013-02-04 22:58:00,
2013-02-04 18:03:00,36.3,5.6,29.21,East,99,0.0,0.0,27,0.00,,,0.00,VWS V14.01,2013-02-04 23:03:00,
2013-02-04 18:08:00,36.3,5.6,29.21,ESE,102,3.6,4.0,27,0.00,,,0.00,VWS V14.01,2013-02-04 23:08:00,
2013-02-04 18:13:00,36.3,5.6,29.21,East,84,0.0,0.0,27,0.00,,,0.00,VWS V14.01,2013-02-04 23:13:00,
2013-02-04 18:18:00,36.1,5.4,29.21,East,94,0.0,0.0,27,0.00,,,0.00,VWS V14.01,2013-02-04 23:18:00,
2013-02-04 18:23:00,36.1,5.4,29.21,East,94,0.0,0.0,27,0.00,,,0.00,VWS V14.01,2013-02-04 23:23:00,
2013-02-04 18:28:00,36.1,5.4,29.21,ESE,118,0.0,3.1,27,0.00,,,0.00,VWS V14.01,2013-02-04 23:28:00,
2013-02-04 18:33:00,36.0,5.2,29.21,East,98,0.0,3.1,27,0.00,,,0.00,VWS V14.01,2013-02-04 23:33:00,
2013-02-04 18:38:00,36.0,5.2,29.21,East,98,0.0,0.0,27,0.00,,,0.00,VWS V14.01,2013-02-04 23:38:00,
2013-02-04 18:43:00,35.8,5.1,29.21,East,100,3.1,3.1,27,0.00,,,0.00,VWS V14.01,2013-02-04 23:43:00,
2013-02-04 18:48:00,35.8,5.1,29.21,ESE,116,0.0,0.0,27,0.00,,,0.00,VWS V14.01,2013-02-04 23:48:00,
2013-02-04 18:53:00,35.8,5.1,29.21,East,99,0.0,0.0,27,0.00,,,0.00,VWS V14.01,2013-02-04 23:53:00,
2013-02-04 18:58:00,35.8,5.1,29.21,East,99,0.0,0.0,27,0.00,,,0.00,VWS V14.01,2013-02-04 23:58:00,
2013-02-04 19:03:00,35.6,4.9,29.21,ESE,118,0.0,0.0,27,0.00,,,0.00,VWS V14.01,2013-02-05 00:03:00,
2013-02-04 19:08:00,35.6,4.9,29.21,East,92,0.0,0.0,27,0.00,,,0.00,VWS V14.01,2013-02-05 00:08:00,
2013-02-04 19:13:00,35.6,4.9,29.21,East,92,0.0,0.0,27,0.00,,,0.00,VWS V14.01,2013-02-05 00:13:00,
2013-02-04 19:18:00,35.4,4.8,29.21,East,92,0.0,0.0,27,0.00,,,0.00,VWS V14.01,2013-02-05 00:18:00,
2013-02-04 19:23:00,35.4,4.8,29.21,East,92,0.0,0.0,27,0.00,,,0.00,VWS V14.01,2013-02-05 00:23:00,
2013-02-04 19:28:00,35.4,4.8,29.21,East,92,0.0,0.0,27,0.00,,,0.00,VWS V14.01,2013-02-05 00:28:00,
2013-02-04 19:33:00,35.4,4.8,29.21,East,92,0.0,0.0,27,0.00,,,0.00,VWS V14.01,2013-02-05 00:33:00,
2013-02-04 19:38:00,35.4,4.8,29.21,East,92,0.0,0.0,27,0.00,,,0.00,VWS V14.01,2013-02-05 00:38:00,
2013-02-04 19:43:00,35.4,4.8,29.21,East,92,0.0,0.0,27,0.00,,,0.00,VWS V14.01,2013-02-05 00:43:00,
2013-02-04 19:48:00,35.4,4.8,29.18,East,92,0.0,0.0,27,0.00,,,0.00,VWS V14.01,2013-02-05 00:48:00,
2013-02-04 19:53:00,35.4,4.8,29.18,East,92,0.0,0.0,27,0.00,,,0.00,VWS V14.01,2013-02-05 00:53:00,
2013-02-04 19:58:00,35.4,4.8,29.18,East,92,0.0,0.0,27,0.00,,,0.00,VWS V14.01,2013-02-05 00:58:00,
2013-02-04 20:03:00,35.4,4.8,29.18,East,92,0.0,0.0,27,0.00,,,0.00,VWS V14.01,2013-02-05 01:03:00,
2013-02-04 20:08:00,35.4,4.8,29.18,East,92,0.0,0.0,27,0.00,,,0.00,VWS V14.01,2013-02-05 01:08:00,
2013-02-04 20:13:00,35.2,6.9,29.18,East,92,0.0,0.0,30,0.00,,,0.00,VWS V14.01,2013-02-05 01:13:00,
2013-02-04 20:18:00,35.2,6.9,29.18,East,92,0.0,0.0,30,0.00,,,0.00,VWS V14.01,2013-02-05 01:18:00,
2013-02-04 20:23:00,35.2,6.9,29.18,East,92,0.0,0.0,30,0.00,,,0.00,VWS V14.01,2013-02-05 01:23:00,
2013-02-04 20:28:00,35.2,6.9,29.18,East,92,0.0,0.0,30,0.00,,,0.00,VWS V14.01,2013-02-05 01:28:00,
2013-02-04 20:33:00,35.2,6.9,29.21,East,92,0.0,0.0,30,0.00,,,0.00,VWS V14.01,2013-02-05 01:33:00,
2013-02-04 20:38:00,35.2,6.9,29.21,East,92,0.0,0.0,30,0.00,,,0.00,VWS V14.01,2013-02-05 01:38:00,
2013-02-04 20:43:00,35.2,6.9,29.21,East,92,0.0,0.0,30,0.00,,,0.00,VWS V14.01,2013-02-05 01:43:00,
2013-02-04 20:48:00,35.1,6.8,29.21,East,92,0.0,0.0,30,0.00,,,0.00,VWS V14.01,2013-02-05 01:48:00,
2013-02-04 20:53:00,35.1,6.8,29.21,East,92,0.0,0.0,30,0.00,,,0.00,VWS V14.01,2013-02-05 01:53:00,
2013-02-04 20:58:00,35.1,6.8,29.21,East,92,0.0,0.0,30,0.00,,,0.00,VWS V14.01,2013-02-05 01:58:00,
2013-02-04 21:03:00,35.1,6.8,29.18,East,92,0.0,0.0,30,0.00,,,0.00,VWS V14.01,2013-02-05 02:03:00,
2013-02-04 21:08:00,35.2,6.9,29.18,East,92,0.0,0.0,30,0.00,,,0.00,VWS V14.01,2013-02-05 02:08:00,
2013-02-04 21:13:00,35.1,6.8,29.18,East,92,0.0,0.0,30,0.00,,,0.00,VWS V14.01,2013-02-05 02:13:00,
2013-02-04 21:18:00,35.1,6.8,29.18,East,92,0.0,0.0,30,0.00,,,0.00,VWS V14.01,2013-02-05 02:18:00,
2013-02-04 21:23:00,35.1,6.8,29.18,East,92,0.0,0.0,30,0.00,,,0.00,VWS V14.01,2013-02-05 02:23:00,
2013-02-04 21:28:00,34.9,6.6,29.18,East,92,0.0,0.0,30,0.00,,,0.00,VWS V14.01,2013-02-05 02:28:00,
2013-02-04 21:33:00,34.9,6.6,29.18,East,92,0.0,0.0,30,0.00,,,0.00,VWS V14.01,2013-02-05 02:33:00,
2013-02-04 21:38:00,34.9,6.6,29.18,East,92,0.0,0.0,30,0.00,,,0.00,VWS V14.01,2013-02-05 02:38:00,
2013-02-04 21:43:00,34.9,6.6,29.18,East,92,0.0,0.0,30,0.00,,,0.00,VWS V14.01,2013-02-05 02:43:00,
2013-02-04 21:48:00,34.7,6.4,29.18,East,92,0.0,0.0,30,0.00,,,0.00,VWS V14.01,2013-02-05 02:48:00,
2013-02-04 21:53:00,34.7,6.4,29.18,East,92,0.0,0.0,30,0.00,,,0.00,VWS V14.01,2013-02-05 02:53:00,
2013-02-04 21:58:00,34.5,6.3,29.18,East,92,0.0,0.0,30,0.00,,,0.00,VWS V14.01,2013-02-05 02:58:00,
2013-02-04 22:03:00,34.5,6.3,29.18,East,92,0.0,0.0,30,0.00,,,0.00,VWS V14.01,2013-02-05 03:03:00,
2013-02-04 22:08:00,34.5,6.3,29.18,East,92,0.0,0.0,30,0.00,,,0.00,VWS V14.01,2013-02-05 03:08:00,
2013-02-04 22:13:00,34.5,6.3,29.18,East,92,0.0,0.0,30,0.00,,,0.00,VWS V14.01,2013-02-05 03:13:00,
2013-02-04 22:18:00,34.5,6.3,29.18,East,92,0.0,0.0,30,0.00,,,0.00,VWS V14.01,2013-02-05 03:18:00,
2013-02-04 22:23:00,34.3,6.1,29.18,East,92,0.0,0.0,30,0.00,,,0.00,VWS V14.01,2013-02-05 03:23:00,
2013-02-04 22:28:00,34.3,6.1,29.18,East,92,0.0,0.0,30,0.00,,,0.00,VWS V14.01,2013-02-05 03:28:00,
2013-02-04 22:33:00,34.3,6.1,29.18,East,92,0.0,0.0,30,0.00,,,0.00,VWS V14.01,2013-02-05 03:33:00,
2013-02-04 22:38:00,34.3,6.1,29.18,East,92,0.0,0.0,30,0.00,,,0.00,VWS V14.01,2013-02-05 03:38:00,
2013-02-04 22:43:00,34.3,6.1,29.18,East,92,0.0,0.0,30,0.00,,,0.00,VWS V14.01,2013-02-05 03:43:00,
2013-02-04 22:49:00,34.3,6.1,29.18,East,92,0.0,0.0,30,0.00,,,0.00,VWS V14.01,2013-02-05 03:49:00,
2013-02-04 22:53:00,34.3,6.1,29.18,East,92,0.0,0.0,30,0.00,,,0.00,VWS V14.01,2013-02-05 03:53:00,
2013-02-04 22:59:00,34.3,6.1,29.18,East,92,0.0,0.0,30,0.00,,,0.00,VWS V14.01,2013-02-05 03:59:00,
2013-02-04 23:04:00,34.2,6.0,29.18,East,92,0.0,0.0,30,0.00,,,0.00,VWS V14.01,2013-02-05 04:04:00,
2013-02-04 23:09:00,34.2,6.7,29.18,East,92,0.0,0.0,31,0.00,,,0.00,VWS V14.01,2013-02-05 04:09:00,
2013-02-04 23:14:00,34.0,6.5,29.18,East,92,0.0,0.0,31,0.00,,,0.00,VWS V14.01,2013-02-05 04:14:00,
2013-02-04 23:19:00,34.0,6.5,29.18,East,92,0.0,0.0,31,0.00,,,0.00,VWS V14.01,2013-02-05 04:19:00,
2013-02-04 23:24:00,34.0,6.5,29.18,East,92,0.0,0.0,31,0.00,,,0.00,VWS V14.01,2013-02-05 04:24:00,
2013-02-04 23:29:00,34.0,6.5,29.18,East,92,0.0,0.0,31,0.00,,,0.00,VWS V14.01,2013-02-05 04:29:00,
2013-02-04 23:34:00,34.0,6.5,29.15,East,92,0.0,0.0,31,0.00,,,0.00,VWS V14.01,2013-02-05 04:34:00,
2013-02-04 23:39:00,34.0,6.5,29.15,East,92,0.0,0.0,31,0.00,,,0.00,VWS V14.01,2013-02-05 04:39:00,
2013-02-04 23:44:00,33.8,6.4,29.15,East,92,0.0,0.0,31,0.00,,,0.00,VWS V14.01,2013-02-05 04:44:00,
2013-02-04 23:49:00,33.8,6.4,29.15,East,92,0.0,0.0,31,0.00,,,0.00,VWS V14.01,2013-02-05 04:49:00,
2013-02-04 23:54:00,33.8,6.4,29.15,East,92,0.0,0.0,31,0.00,,,0.00,VWS V14.01,2013-02-05 04:54:00,
2013-02-04 23:59:00,33.6,6.2,29.15,NNE,27,0.0,0.0,31,0.00,,,0.00,VWS V14.01,2013-02-05 04:59:00,